createdAt,value
2017-03-11T00:00:49.676Z,1022.82
2017-03-11T00:01:59.154Z,1022.78
2017-03-11T00:03:07.830Z,1022.84
2017-03-11T00:04:16.908Z,1022.86
2017-03-11T00:05:26.359Z,1022.83
2017-03-11T00:06:35.426Z,1022.8
2017-03-11T00:07:44.875Z,1022.78
2017-03-11T00:08:53.957Z,1022.76
2017-03-11T00:10:03.412Z,1022.71
2017-03-11T00:11:12.784Z,1022.75
2017-03-11T00:12:22.281Z,1022.76
2017-03-11T00:13:31.378Z,1022.75
2017-03-11T00:14:41.211Z,1022.78
2017-03-11T00:15:51.082Z,1022.8
2017-03-11T00:16:59.775Z,1022.88
2017-03-11T00:18:09.231Z,1022.85
2017-03-11T00:19:18.319Z,1022.96
2017-03-11T00:20:27.783Z,1023.06
2017-03-11T00:21:37.236Z,1023.05
2017-03-11T00:22:47.404Z,1023.08
2017-03-11T00:23:56.849Z,1023.09
2017-03-11T00:25:06.686Z,1023.01
2017-03-11T00:26:15.763Z,1023.01
2017-03-11T00:27:25.212Z,1023.02
2017-03-11T00:28:35.104Z,1023.02
2017-03-11T00:29:45.341Z,1022.98
2017-03-11T00:30:54.421Z,1022.98
2017-03-11T00:32:03.530Z,1022.93
2017-03-11T00:33:12.996Z,1022.96
2017-03-11T00:34:21.691Z,1023.02
2017-03-11T00:35:31.550Z,1022.97
2017-03-11T00:36:41.010Z,1023.02
2017-03-11T00:37:50.471Z,1022.94
2017-03-11T00:38:59.921Z,1022.98
2017-03-11T00:40:10.140Z,1022.94
2017-03-11T00:41:19.597Z,1022.94
2017-03-11T00:42:29.091Z,1022.93
2017-03-11T00:43:37.799Z,1022.96
2017-03-11T00:44:47.647Z,1022.97
2017-03-11T00:45:57.170Z,1022.98
2017-03-11T00:47:06.279Z,1022.95
2017-03-11T00:48:16.139Z,1022.97
2017-03-11T00:49:25.198Z,1022.97
2017-03-11T00:50:33.885Z,1022.95
2017-03-11T00:51:43.357Z,1022.98
2017-03-11T00:52:52.438Z,1022.97
2017-03-11T00:54:01.916Z,1022.94
2017-03-11T00:55:11.361Z,1022.9
2017-03-11T00:56:20.824Z,1022.94
2017-03-11T00:57:30.650Z,1022.95
2017-03-11T00:58:40.114Z,1022.96
2017-03-11T00:59:49.567Z,1022.94
2017-03-11T01:00:59.018Z,1022.86
2017-03-11T01:02:08.483Z,1022.81
2017-03-11T01:03:17.551Z,1022.78
2017-03-11T01:04:27.040Z,1022.75
2017-03-11T01:05:37.263Z,1022.74
2017-03-11T01:06:45.953Z,1022.76
2017-03-11T01:07:55.304Z,1022.7
2017-03-11T01:09:04.755Z,1022.66
2017-03-11T01:10:13.836Z,1022.63
2017-03-11T01:11:23.726Z,1022.58
2017-03-11T01:12:32.406Z,1022.55
2017-03-11T01:13:41.854Z,1022.58
2017-03-11T01:14:51.296Z,1022.49
2017-03-11T01:16:00.377Z,1022.47
2017-03-11T01:17:10.237Z,1022.47
2017-03-11T01:18:19.946Z,1022.4
2017-03-11T01:19:29.419Z,1022.39
2017-03-11T01:20:39.281Z,1022.42
2017-03-11T01:21:48.348Z,1022.41
2017-03-11T01:22:57.805Z,1022.42
2017-03-11T01:24:07.280Z,1022.42
2017-03-11T01:25:15.967Z,1022.37
2017-03-11T01:26:24.652Z,1022.33
2017-03-11T01:27:34.104Z,1022.33
2017-03-11T01:28:43.569Z,1022.31
2017-03-11T01:29:53.038Z,1022.23
2017-03-11T01:31:02.526Z,1022.21
2017-03-11T01:32:11.232Z,1022.2
2017-03-11T01:33:20.699Z,1022.22
2017-03-11T01:34:30.565Z,1022.21
2017-03-11T01:35:40.717Z,1022.21
2017-03-11T01:36:50.174Z,1022.18
2017-03-11T01:37:58.879Z,1022.18
2017-03-11T01:39:08.373Z,1022.16
2017-03-11T01:40:17.442Z,1022.12
2017-03-11T01:41:27.267Z,1022.07
2017-03-11T01:42:36.737Z,1022.06
2017-03-11T01:43:46.202Z,1022.03
2017-03-11T01:44:55.669Z,1021.97
2017-03-11T01:46:05.112Z,1022.05
2017-03-11T01:47:14.862Z,1021.99
2017-03-11T01:48:24.355Z,1022
2017-03-11T01:49:33.051Z,1021.96
2017-03-11T01:50:42.509Z,1022
2017-03-11T01:51:52.358Z,1021.99
2017-03-11T01:53:01.426Z,1021.99
2017-03-11T01:54:11.245Z,1021.97
2017-03-11T01:55:19.942Z,1021.98
2017-03-11T01:56:29.406Z,1021.96
2017-03-11T01:57:38.871Z,1021.95
2017-03-11T01:58:48.636Z,1021.94
2017-03-11T01:59:58.111Z,1021.94
2017-03-11T02:01:07.206Z,1021.95
2017-03-11T02:02:16.665Z,1021.88
2017-03-11T02:03:26.120Z,1021.88
2017-03-11T02:04:35.955Z,1021.86
2017-03-11T02:05:45.036Z,1021.87
2017-03-11T02:06:54.108Z,1021.89
2017-03-11T02:08:03.591Z,1021.81
2017-03-11T02:09:12.656Z,1021.86
2017-03-11T02:10:21.997Z,1021.84
2017-03-11T02:11:31.458Z,1021.84
2017-03-11T02:12:41.311Z,1021.82
2017-03-11T02:13:50.374Z,1021.77
2017-03-11T02:14:59.826Z,1021.75
2017-03-11T02:16:08.509Z,1021.75
2017-03-11T02:17:18.716Z,1021.69
2017-03-11T02:18:28.955Z,1021.67
2017-03-11T02:19:38.413Z,1021.61
2017-03-11T02:20:47.900Z,1021.58
2017-03-11T02:21:56.585Z,1021.57
2017-03-11T02:23:05.682Z,1021.48
2017-03-11T02:24:14.760Z,1021.48
2017-03-11T02:25:24.613Z,1021.45
2017-03-11T02:26:34.862Z,1021.43
2017-03-11T02:27:44.200Z,1021.39
2017-03-11T02:28:53.640Z,1021.37
2017-03-11T02:30:03.485Z,1021.39
2017-03-11T02:31:12.962Z,1021.36
2017-03-11T02:32:22.421Z,1021.34
2017-03-11T02:33:31.484Z,1021.31
2017-03-11T02:34:40.557Z,1021.36
2017-03-11T02:35:50.386Z,1021.33
2017-03-11T02:37:01.019Z,1021.35
2017-03-11T02:38:10.083Z,1021.34
2017-03-11T02:39:19.805Z,1021.32
2017-03-11T02:40:29.270Z,1021.28
2017-03-11T02:41:38.719Z,1021.34
2017-03-11T02:42:48.168Z,1021.36
2017-03-11T02:43:57.615Z,1021.32
2017-03-11T02:45:06.687Z,1021.37
2017-03-11T02:46:16.139Z,1021.39
2017-03-11T02:47:25.602Z,1021.41
2017-03-11T02:48:34.660Z,1021.4
2017-03-11T02:49:43.362Z,1021.41
2017-03-11T02:50:52.423Z,1021.38
2017-03-11T02:52:02.270Z,1021.39
2017-03-11T02:53:10.956Z,1021.31
2017-03-11T02:54:20.401Z,1021.34
2017-03-11T02:55:29.870Z,1021.37
2017-03-11T02:56:39.564Z,1021.42
2017-03-11T02:57:49.040Z,1021.43
2017-03-11T02:58:58.889Z,1021.43
2017-03-11T03:00:07.574Z,1021.48
2017-03-11T03:01:17.036Z,1021.46
2017-03-11T03:02:26.497Z,1021.45
2017-03-11T03:03:35.975Z,1021.48
2017-03-11T03:04:45.052Z,1021.52
2017-03-11T03:05:54.150Z,1021.46
2017-03-11T03:07:03.985Z,1021.49
2017-03-11T03:08:12.928Z,1021.45
2017-03-11T03:09:22.412Z,1021.46
2017-03-11T03:10:31.897Z,1021.49
2017-03-11T03:11:40.966Z,1021.44
2017-03-11T03:12:50.422Z,1021.41
2017-03-11T03:13:59.105Z,1021.45
2017-03-11T03:15:08.560Z,1021.46
2017-03-11T03:16:18.031Z,1021.44
2017-03-11T03:17:26.728Z,1021.46
2017-03-11T03:18:35.787Z,1021.52
2017-03-11T03:19:45.861Z,1021.56
2017-03-11T03:20:54.960Z,1021.58
2017-03-11T03:22:04.053Z,1021.55
2017-03-11T03:23:13.511Z,1021.58
2017-03-11T03:24:23.356Z,1021.57
2017-03-11T03:25:32.461Z,1021.55
2017-03-11T03:26:42.319Z,1021.61
2017-03-11T03:27:51.767Z,1021.59
2017-03-11T03:29:02.008Z,1021.59
2017-03-11T03:30:11.091Z,1021.56
2017-03-11T03:31:20.787Z,1021.57
2017-03-11T03:32:30.225Z,1021.59
2017-03-11T03:33:40.058Z,1021.53
2017-03-11T03:34:49.523Z,1021.49
2017-03-11T03:35:58.209Z,1021.43
2017-03-11T03:37:07.289Z,1021.4
2017-03-11T03:38:16.779Z,1021.36
2017-03-11T03:39:26.637Z,1021.4
2017-03-11T03:40:35.718Z,1021.43
2017-03-11T03:41:44.801Z,1021.45
2017-03-11T03:42:53.891Z,1021.43
2017-03-11T03:44:03.344Z,1021.45
2017-03-11T03:45:12.435Z,1021.44
2017-03-11T03:46:21.536Z,1021.45
2017-03-11T03:47:30.632Z,1021.45
2017-03-11T03:48:40.876Z,1021.41
2017-03-11T03:49:50.331Z,1021.43
2017-03-11T03:51:00.165Z,1021.43
2017-03-11T03:52:09.620Z,1021.4
2017-03-11T03:53:19.060Z,1021.36
2017-03-11T03:54:28.898Z,1021.37
2017-03-11T03:55:39.118Z,1021.35
2017-03-11T03:56:48.189Z,1021.4
2017-03-11T03:57:57.659Z,1021.38
2017-03-11T03:59:06.734Z,1021.34
2017-03-11T04:00:16.444Z,1021.32
2017-03-11T04:01:25.891Z,1021.32
2017-03-11T04:02:35.364Z,1021.33
2017-03-11T04:03:45.194Z,1021.29
2017-03-11T04:04:54.278Z,1021.27
2017-03-11T04:06:04.129Z,1021.24
2017-03-11T04:07:13.571Z,1021.26
2017-03-11T04:08:23.039Z,1021.23
2017-03-11T04:09:32.123Z,1021.21
2017-03-11T04:10:41.966Z,1021.2
2017-03-11T04:11:50.913Z,1021.22
2017-03-11T04:13:00.004Z,1021.21
2017-03-11T04:14:09.086Z,1021.17
2017-03-11T04:15:18.180Z,1021.24
2017-03-11T04:16:28.018Z,1021.19
2017-03-11T04:17:37.487Z,1021.19
2017-03-11T04:18:46.542Z,1021.23
2017-03-11T04:19:56.001Z,1021.25
2017-03-11T04:21:05.088Z,1021.25
2017-03-11T04:22:13.784Z,1021.21
2017-03-11T04:23:23.091Z,1021.22
2017-03-11T04:24:32.552Z,1021.19
2017-03-11T04:25:42.002Z,1021.23
2017-03-11T04:26:51.460Z,1021.23
2017-03-11T04:28:00.525Z,1021.12
2017-03-11T04:29:09.591Z,1021.15
2017-03-11T04:30:18.684Z,1021.12
2017-03-11T04:31:28.506Z,1021.11
2017-03-11T04:32:37.575Z,1021.09
2017-03-11T04:33:46.648Z,1021.07
2017-03-11T04:34:55.717Z,1021.03
2017-03-11T04:36:05.171Z,1021.05
2017-03-11T04:37:15.000Z,1021
2017-03-11T04:38:23.686Z,1021.02
2017-03-11T04:39:33.897Z,1021.04
2017-03-11T04:40:43.606Z,1021.07
2017-03-11T04:41:52.295Z,1021.05
2017-03-11T04:43:01.354Z,1021.08
2017-03-11T04:44:11.581Z,1021.02
2017-03-11T04:45:21.420Z,1021.04
2017-03-11T04:46:30.870Z,1020.99
2017-03-11T04:47:40.727Z,1021.03
2017-03-11T04:48:50.186Z,1020.96
2017-03-11T04:49:59.643Z,1020.98
2017-03-11T04:51:09.087Z,1020.94
2017-03-11T04:52:18.167Z,1020.92
2017-03-11T04:53:27.615Z,1020.88
2017-03-11T04:54:36.701Z,1020.88
2017-03-11T04:55:45.789Z,1020.9
2017-03-11T04:56:56.030Z,1020.81
2017-03-11T04:58:05.115Z,1020.82
2017-03-11T04:59:14.185Z,1020.77
2017-03-11T05:00:23.265Z,1020.76
2017-03-11T05:01:33.115Z,1020.8
2017-03-11T05:02:42.587Z,1020.81
2017-03-11T05:03:52.447Z,1020.7
2017-03-11T05:05:01.926Z,1020.72
2017-03-11T05:06:11.394Z,1020.71
2017-03-11T05:07:20.847Z,1020.68
2017-03-11T05:08:29.914Z,1020.65
2017-03-11T05:09:38.864Z,1020.67
2017-03-11T05:10:49.089Z,1020.63
2017-03-11T05:11:58.558Z,1020.67
2017-03-11T05:13:07.652Z,1020.67
2017-03-11T05:14:17.088Z,1020.68
2017-03-11T05:15:26.546Z,1020.71
2017-03-11T05:16:35.609Z,1020.7
2017-03-11T05:17:44.306Z,1020.66
2017-03-11T05:18:53.374Z,1020.69
2017-03-11T05:20:02.850Z,1020.71
2017-03-11T05:21:12.945Z,1020.67
2017-03-11T05:22:22.024Z,1020.67
2017-03-11T05:23:31.877Z,1020.68
2017-03-11T05:24:40.953Z,1020.65
2017-03-11T05:25:50.011Z,1020.64
2017-03-11T05:26:59.838Z,1020.59
2017-03-11T05:28:09.302Z,1020.6
2017-03-11T05:29:18.769Z,1020.62
2017-03-11T05:30:28.243Z,1020.61
2017-03-11T05:31:37.711Z,1020.59
2017-03-11T05:32:47.033Z,1020.64
2017-03-11T05:33:56.110Z,1020.61
2017-03-11T05:35:05.569Z,1020.67
2017-03-11T05:36:14.276Z,1020.63
2017-03-11T05:37:23.358Z,1020.61
2017-03-11T05:38:32.424Z,1020.57
2017-03-11T05:39:41.882Z,1020.65
2017-03-11T05:40:51.324Z,1020.61
2017-03-11T05:42:00.009Z,1020.65
2017-03-11T05:43:09.456Z,1020.61
2017-03-11T05:44:19.159Z,1020.63
2017-03-11T05:45:27.849Z,1020.64
2017-03-11T05:46:36.910Z,1020.59
2017-03-11T05:47:46.362Z,1020.7
2017-03-11T05:48:56.210Z,1020.67
2017-03-11T05:50:06.434Z,1020.74
2017-03-11T05:51:15.886Z,1020.69
2017-03-11T05:52:25.714Z,1020.71
2017-03-11T05:53:35.168Z,1020.69
2017-03-11T05:54:44.612Z,1020.66
2017-03-11T05:55:54.697Z,1020.76
2017-03-11T05:57:04.528Z,1020.69
2017-03-11T05:58:13.612Z,1020.63
2017-03-11T05:59:23.055Z,1020.68
2017-03-11T06:00:32.511Z,1020.65
2017-03-11T06:01:42.340Z,1020.62
2017-03-11T06:02:51.413Z,1020.61
2017-03-11T06:04:00.880Z,1020.67
2017-03-11T06:05:10.339Z,1020.58
2017-03-11T06:06:19.823Z,1020.57
2017-03-11T06:07:29.198Z,1020.61
2017-03-11T06:08:39.024Z,1020.59
2017-03-11T06:09:48.473Z,1020.56
2017-03-11T06:10:57.567Z,1020.52
2017-03-11T06:12:07.790Z,1020.59
2017-03-11T06:13:16.485Z,1020.51
2017-03-11T06:14:25.571Z,1020.54
2017-03-11T06:15:35.029Z,1020.49
2017-03-11T06:16:44.868Z,1020.48
2017-03-11T06:17:54.701Z,1020.52
2017-03-11T06:19:04.408Z,1020.48
2017-03-11T06:20:13.891Z,1020.48
2017-03-11T06:21:22.964Z,1020.48
2017-03-11T06:22:31.659Z,1020.48
2017-03-11T06:23:41.111Z,1020.42
2017-03-11T06:24:50.557Z,1020.42
2017-03-11T06:26:00.389Z,1020.39
2017-03-11T06:27:09.084Z,1020.43
2017-03-11T06:28:18.916Z,1020.39
2017-03-11T06:29:27.603Z,1020.4
2017-03-11T06:30:36.981Z,1020.38
2017-03-11T06:31:46.042Z,1020.37
2017-03-11T06:32:55.495Z,1020.39
2017-03-11T06:34:05.726Z,1020.41
2017-03-11T06:35:15.169Z,1020.41
2017-03-11T06:36:24.644Z,1020.4
2017-03-11T06:37:33.705Z,1020.39
2017-03-11T06:38:43.159Z,1020.36
2017-03-11T06:39:52.225Z,1020.42
2017-03-11T06:41:01.676Z,1020.4
2017-03-11T06:42:11.033Z,1020.39
2017-03-11T06:43:20.483Z,1020.37
2017-03-11T06:44:29.560Z,1020.37
2017-03-11T06:45:39.012Z,1020.35
2017-03-11T06:46:48.475Z,1020.35
2017-03-11T06:47:57.930Z,1020.39
2017-03-11T06:49:07.406Z,1020.43
2017-03-11T06:50:16.874Z,1020.41
2017-03-11T06:51:26.719Z,1020.47
2017-03-11T06:52:36.934Z,1020.4
2017-03-11T06:53:46.671Z,1020.41
2017-03-11T06:54:55.362Z,1020.47
2017-03-11T06:56:04.422Z,1020.48
2017-03-11T06:57:13.505Z,1020.5
2017-03-11T06:58:22.983Z,1020.48
2017-03-11T06:59:32.468Z,1020.53
2017-03-11T07:00:41.563Z,1020.5
2017-03-11T07:01:50.620Z,1020.5
2017-03-11T07:03:00.062Z,1020.55
2017-03-11T07:04:09.532Z,1020.56
2017-03-11T07:05:18.606Z,1020.57
2017-03-11T07:06:27.688Z,1020.53
2017-03-11T07:07:37.536Z,1020.54
2017-03-11T07:08:46.974Z,1020.53
2017-03-11T07:09:56.427Z,1020.56
2017-03-11T07:11:06.129Z,1020.51
2017-03-11T07:12:15.971Z,1020.51
2017-03-11T07:13:25.420Z,1020.49
2017-03-11T07:14:34.612Z,1020.52
2017-03-11T07:15:44.086Z,1020.48
2017-03-11T07:16:53.160Z,1020.45
2017-03-11T07:18:02.233Z,1020.42
2017-03-11T07:19:11.690Z,1020.44
2017-03-11T07:20:20.410Z,1020.45
2017-03-11T07:21:29.478Z,1020.37
2017-03-11T07:22:38.804Z,1020.39
2017-03-11T07:23:47.887Z,1020.33
2017-03-11T07:24:56.959Z,1020.35
2017-03-11T07:26:06.029Z,1020.33
2017-03-11T07:27:15.856Z,1020.37
2017-03-11T07:28:25.323Z,1020.34
2017-03-11T07:29:34.770Z,1020.36
2017-03-11T07:30:44.214Z,1020.35
2017-03-11T07:31:53.656Z,1020.4
2017-03-11T07:33:03.484Z,1020.43
2017-03-11T07:34:13.199Z,1020.43
2017-03-11T07:35:22.272Z,1020.43
2017-03-11T07:36:31.723Z,1020.44
2017-03-11T07:37:41.972Z,1020.52
2017-03-11T07:38:51.043Z,1020.46
2017-03-11T07:39:59.754Z,1020.44
2017-03-11T07:41:09.582Z,1020.47
2017-03-11T07:42:19.040Z,1020.48
2017-03-11T07:43:28.127Z,1020.42
2017-03-11T07:44:37.599Z,1020.45
2017-03-11T07:45:47.722Z,1020.46
2017-03-11T07:46:57.169Z,1020.46
2017-03-11T07:48:06.631Z,1020.47
2017-03-11T07:49:16.477Z,1020.44
2017-03-11T07:50:26.313Z,1020.46
2017-03-11T07:51:35.784Z,1020.46
2017-03-11T07:52:45.238Z,1020.44
2017-03-11T07:53:55.084Z,1020.48
2017-03-11T07:55:04.146Z,1020.45
2017-03-11T07:56:13.611Z,1020.43
2017-03-11T07:57:23.082Z,1020.51
2017-03-11T07:58:32.956Z,1020.5
2017-03-11T07:59:43.209Z,1020.54
2017-03-11T08:00:52.749Z,1020.52
2017-03-11T08:02:02.585Z,1020.54
2017-03-11T08:03:12.834Z,1020.55
2017-03-11T08:04:22.319Z,1020.55
2017-03-11T08:05:31.401Z,1020.61
2017-03-11T08:06:40.485Z,1020.63
2017-03-11T08:07:50.733Z,1020.61
2017-03-11T08:09:00.071Z,1020.65
2017-03-11T08:10:09.550Z,1020.67
2017-03-11T08:11:20.146Z,1020.63
2017-03-11T08:12:29.992Z,1020.67
2017-03-11T08:13:39.366Z,1020.66
2017-03-11T08:14:49.266Z,1020.66
2017-03-11T08:15:58.746Z,1020.68
2017-03-11T08:17:08.206Z,1020.71
2017-03-11T08:18:17.290Z,1020.69
2017-03-11T08:19:26.734Z,1020.72
2017-03-11T08:20:36.067Z,1020.69
2017-03-11T08:21:45.910Z,1020.68
2017-03-11T08:22:56.004Z,1020.68
2017-03-11T08:24:05.487Z,1020.68
2017-03-11T08:25:14.913Z,1020.69
2017-03-11T08:26:24.317Z,1020.72
2017-03-11T08:27:33.685Z,1020.73
2017-03-11T08:28:43.270Z,1020.71
2017-03-11T08:29:52.358Z,1020.8
2017-03-11T08:31:02.231Z,1020.79
2017-03-11T08:32:12.071Z,1020.79
2017-03-11T08:33:20.796Z,1020.82
2017-03-11T08:34:29.880Z,1020.79
2017-03-11T08:35:39.340Z,1020.75
2017-03-11T08:36:49.182Z,1020.69
2017-03-11T08:37:58.510Z,1020.73
2017-03-11T08:39:07.973Z,1020.75
2017-03-11T08:40:16.680Z,1020.73
2017-03-11T08:41:25.763Z,1020.74
2017-03-11T08:42:35.238Z,1020.74
2017-03-11T08:43:45.036Z,1020.7
2017-03-11T08:44:54.343Z,1020.75
2017-03-11T08:46:03.871Z,1020.74
2017-03-11T08:47:12.942Z,1020.77
2017-03-11T08:48:22.023Z,1020.8
2017-03-11T08:49:31.025Z,1020.78
2017-03-11T08:50:40.504Z,1020.79
2017-03-11T08:51:49.974Z,1020.78
2017-03-11T08:52:59.067Z,1020.76
2017-03-11T08:54:08.918Z,1020.78
2017-03-11T08:55:18.573Z,1020.79
2017-03-11T08:56:27.259Z,1020.76
2017-03-11T08:57:36.704Z,1020.76
2017-03-11T08:58:45.842Z,1020.76
2017-03-11T08:59:55.682Z,1020.72
2017-03-11T09:01:06.139Z,1020.77
2017-03-11T09:02:15.217Z,1020.81
2017-03-11T09:03:23.939Z,1020.81
2017-03-11T09:04:33.796Z,1020.82
2017-03-11T09:05:42.482Z,1020.79
2017-03-11T09:06:51.564Z,1020.84
2017-03-11T09:08:01.057Z,1020.78
2017-03-11T09:09:10.890Z,1020.79
2017-03-11T09:10:20.374Z,1020.83
2017-03-11T09:11:29.893Z,1020.84
2017-03-11T09:12:39.238Z,1020.84
2017-03-11T09:13:48.334Z,1020.79
2017-03-11T09:14:57.445Z,1020.82
2017-03-11T09:16:07.277Z,1020.86
2017-03-11T09:17:16.751Z,1020.83
2017-03-11T09:18:26.208Z,1020.81
2017-03-11T09:19:35.283Z,1020.76
2017-03-11T09:20:44.346Z,1020.78
2017-03-11T09:21:53.437Z,1020.76
2017-03-11T09:23:02.529Z,1020.76
2017-03-11T09:24:11.488Z,1020.72
2017-03-11T09:25:20.976Z,1020.77
2017-03-11T09:26:30.427Z,1020.76
2017-03-11T09:27:39.901Z,1020.73
2017-03-11T09:28:48.989Z,1020.72
2017-03-11T09:29:59.226Z,1020.74
2017-03-11T09:31:08.673Z,1020.73
2017-03-11T09:32:18.142Z,1020.75
2017-03-11T09:33:27.224Z,1020.75
2017-03-11T09:34:36.681Z,1020.74
2017-03-11T09:35:46.441Z,1020.72
2017-03-11T09:36:55.934Z,1020.74
2017-03-11T09:38:05.036Z,1020.73
2017-03-11T09:39:13.737Z,1020.68
2017-03-11T09:40:22.444Z,1020.71
2017-03-11T09:41:31.894Z,1020.75
2017-03-11T09:42:41.363Z,1020.68
2017-03-11T09:43:50.094Z,1020.71
2017-03-11T09:44:59.579Z,1020.67
2017-03-11T09:46:09.062Z,1020.69
2017-03-11T09:47:18.056Z,1020.69
2017-03-11T09:48:27.150Z,1020.74
2017-03-11T09:49:36.606Z,1020.73
2017-03-11T09:50:46.452Z,1020.71
2017-03-11T09:51:55.538Z,1020.68
2017-03-11T09:53:04.629Z,1020.71
2017-03-11T09:54:13.864Z,1020.67
2017-03-11T09:55:22.975Z,1020.64
2017-03-11T09:56:32.683Z,1020.72
2017-03-11T09:57:42.807Z,1020.7
2017-03-11T09:58:53.074Z,1020.71
2017-03-11T10:00:02.677Z,1020.74
2017-03-11T10:01:12.907Z,1020.77
2017-03-11T10:02:22.409Z,1020.8
2017-03-11T10:03:31.896Z,1020.77
2017-03-11T10:04:41.026Z,1020.78
2017-03-11T10:05:50.887Z,1020.92
2017-03-11T10:07:00.090Z,1021.02
2017-03-11T10:08:09.216Z,1020.93
2017-03-11T10:09:19.064Z,1020.89
2017-03-11T10:10:28.901Z,1020.97
2017-03-11T10:11:38.366Z,1021.19
2017-03-11T10:12:47.867Z,1021.18
2017-03-11T10:13:56.590Z,1021.06
2017-03-11T10:15:06.145Z,1021.1
2017-03-11T10:16:15.451Z,1021.09
2017-03-11T10:17:24.561Z,1020.98
2017-03-11T10:18:34.420Z,1020.98
2017-03-11T10:19:44.665Z,1021.01
2017-03-11T10:20:53.825Z,1020.94
2017-03-11T10:22:03.231Z,1020.92
2017-03-11T10:23:12.741Z,1020.9
2017-03-11T10:24:22.241Z,1020.81
2017-03-11T10:25:30.947Z,1020.78
2017-03-11T10:26:39.699Z,1020.71
2017-03-11T10:27:48.860Z,1020.7
2017-03-11T10:28:58.006Z,1020.66
2017-03-11T10:30:07.978Z,1020.63
2017-03-11T10:31:17.464Z,1020.55
2017-03-11T10:32:26.561Z,1020.53
2017-03-11T10:33:36.754Z,1020.52
2017-03-11T10:34:46.374Z,1020.53
2017-03-11T10:35:56.232Z,1020.48
2017-03-11T10:37:05.715Z,1020.51
2017-03-11T10:38:15.233Z,1020.43
2017-03-11T10:39:24.313Z,1020.47
2017-03-11T10:40:33.404Z,1020.41
2017-03-11T10:41:43.679Z,1020.43
2017-03-11T10:42:53.560Z,1020.41
2017-03-11T10:44:02.649Z,1020.38
2017-03-11T10:45:13.195Z,1020.37
2017-03-11T10:46:22.326Z,1020.36
2017-03-11T10:47:31.812Z,1020.32
2017-03-11T10:48:41.272Z,1020.31
2017-03-11T10:49:51.543Z,1020.27
2017-03-11T10:51:01.965Z,1020.28
2017-03-11T10:52:11.446Z,1020.26
2017-03-11T10:53:20.962Z,1020.25
2017-03-11T10:54:30.470Z,1020.2
2017-03-11T10:55:39.182Z,1020.25
2017-03-11T10:56:49.324Z,1020.16
2017-03-11T10:57:58.845Z,1020.2
2017-03-11T10:59:08.029Z,1020.21
2017-03-11T11:00:17.516Z,1020.16
2017-03-11T11:01:27.407Z,1020.17
2017-03-11T11:02:36.900Z,1020.14
2017-03-11T11:03:46.779Z,1020.14
2017-03-11T11:04:55.892Z,1020.15
2017-03-11T11:06:05.372Z,1020.16
2017-03-11T11:07:14.460Z,1020.14
2017-03-11T11:08:23.956Z,1020.17
2017-03-11T11:09:33.434Z,1020.11
2017-03-11T11:10:42.131Z,1020.14
2017-03-11T11:11:51.225Z,1020.12
2017-03-11T11:13:00.326Z,1020.1
2017-03-11T11:14:09.797Z,1020.11
2017-03-11T11:15:19.337Z,1020.07
2017-03-11T11:16:29.022Z,1020.12
2017-03-11T11:17:38.781Z,1020.08
2017-03-11T11:18:48.631Z,1020.09
2017-03-11T11:19:58.093Z,1020.1
2017-03-11T11:21:07.561Z,1020.05
2017-03-11T11:22:17.084Z,1020.05
2017-03-11T11:23:26.574Z,1020.02
2017-03-11T11:24:35.276Z,1020.01
2017-03-11T11:25:45.446Z,1020.04
2017-03-11T11:26:54.572Z,1020.02
2017-03-11T11:28:03.662Z,1020.04
2017-03-11T11:29:12.769Z,1020
2017-03-11T11:30:21.941Z,1020
2017-03-11T11:31:31.015Z,1020.01
2017-03-11T11:32:40.871Z,1019.95
2017-03-11T11:33:49.600Z,1019.97
2017-03-11T11:34:59.083Z,1019.95
2017-03-11T11:36:08.612Z,1019.94
2017-03-11T11:37:18.106Z,1019.93
2017-03-11T11:38:28.005Z,1019.93
2017-03-11T11:39:37.139Z,1019.94
2017-03-11T11:40:46.616Z,1019.91
2017-03-11T11:41:56.095Z,1019.86
2017-03-11T11:43:05.441Z,1019.83
2017-03-11T11:44:14.906Z,1019.82
2017-03-11T11:45:24.024Z,1019.83
2017-03-11T11:46:33.513Z,1019.79
2017-03-11T11:47:42.610Z,1019.8
2017-03-11T11:48:52.078Z,1019.79
2017-03-11T11:50:01.944Z,1019.77
2017-03-11T11:51:11.054Z,1019.79
2017-03-11T11:52:20.148Z,1019.75
2017-03-11T11:53:28.864Z,1019.72
2017-03-11T11:54:38.632Z,1019.7
2017-03-11T11:55:47.400Z,1019.67
2017-03-11T11:56:57.255Z,1019.71
2017-03-11T11:58:06.735Z,1019.73
2017-03-11T11:59:16.577Z,1019.74
2017-03-11T12:00:25.680Z,1019.73
2017-03-11T12:01:34.781Z,1019.72
2017-03-11T12:02:44.285Z,1019.67
2017-03-11T12:03:53.394Z,1019.65
2017-03-11T12:05:02.488Z,1019.64
2017-03-11T12:06:12.976Z,1019.66
2017-03-11T12:07:22.466Z,1019.64
2017-03-11T12:08:31.540Z,1019.64
2017-03-11T12:09:40.646Z,1019.65
2017-03-11T12:10:49.731Z,1019.61
2017-03-11T12:11:58.828Z,1019.62
2017-03-11T12:13:09.052Z,1019.58
2017-03-11T12:14:18.528Z,1019.52
2017-03-11T12:15:27.621Z,1019.52
2017-03-11T12:16:36.326Z,1019.49
2017-03-11T12:17:45.803Z,1019.49
2017-03-11T12:18:55.640Z,1019.46
2017-03-11T12:20:05.503Z,1019.42
2017-03-11T12:21:14.608Z,1019.44
2017-03-11T12:22:23.328Z,1019.44
2017-03-11T12:23:32.408Z,1019.41
2017-03-11T12:24:42.297Z,1019.38
2017-03-11T12:25:51.040Z,1019.35
2017-03-11T12:26:59.761Z,1019.29
2017-03-11T12:28:09.623Z,1019.32
2017-03-11T12:29:19.416Z,1019.3
2017-03-11T12:30:29.261Z,1019.29
2017-03-11T12:31:38.354Z,1019.29
2017-03-11T12:32:48.219Z,1019.25
2017-03-11T12:33:58.104Z,1019.3
2017-03-11T12:35:07.577Z,1019.28
2017-03-11T12:36:17.048Z,1019.3
2017-03-11T12:37:26.508Z,1019.24
2017-03-11T12:38:35.578Z,1019.28
2017-03-11T12:39:45.435Z,1019.25
2017-03-11T12:40:55.533Z,1019.28
2017-03-11T12:42:04.615Z,1019.26
2017-03-11T12:43:14.470Z,1019.18
2017-03-11T12:44:23.572Z,1019.24
2017-03-11T12:45:32.299Z,1019.15
2017-03-11T12:46:40.997Z,1019.14
2017-03-11T12:47:50.096Z,1019.15
2017-03-11T12:48:59.569Z,1019.16
2017-03-11T12:50:08.663Z,1019.13
2017-03-11T12:51:18.120Z,1019.09
2017-03-11T12:52:27.866Z,1019.13
2017-03-11T12:53:37.348Z,1019.08
2017-03-11T12:54:47.597Z,1019.1
2017-03-11T12:55:57.837Z,1019.06
2017-03-11T12:57:06.545Z,1019.05
2017-03-11T12:58:15.633Z,1019.04
2017-03-11T12:59:25.936Z,1019.04
2017-03-11T13:00:34.636Z,1019.01
2017-03-11T13:01:44.533Z,1018.99
2017-03-11T13:02:54.371Z,1018.94
2017-03-11T13:04:03.831Z,1018.94
2017-03-11T13:05:13.297Z,1018.95
2017-03-11T13:06:22.788Z,1018.89
2017-03-11T13:07:31.885Z,1018.91
2017-03-11T13:08:41.372Z,1018.88
2017-03-11T13:09:52.230Z,1018.92
2017-03-11T13:11:00.955Z,1018.91
2017-03-11T13:12:10.040Z,1018.93
2017-03-11T13:13:19.138Z,1018.87
2017-03-11T13:14:28.983Z,1018.89
2017-03-11T13:15:38.474Z,1018.89
2017-03-11T13:16:48.342Z,1018.91
2017-03-11T13:17:57.821Z,1018.89
2017-03-11T13:19:06.907Z,1018.89
2017-03-11T13:20:16.746Z,1018.86
2017-03-11T13:21:26.838Z,1018.84
2017-03-11T13:22:35.943Z,1018.84
2017-03-11T13:23:46.198Z,1018.83
2017-03-11T13:24:56.095Z,1018.85
2017-03-11T13:26:05.201Z,1018.88
2017-03-11T13:27:14.663Z,1018.81
2017-03-11T13:28:24.146Z,1018.8
2017-03-11T13:29:33.357Z,1018.81
2017-03-11T13:30:42.833Z,1018.8
2017-03-11T13:31:52.709Z,1018.77
2017-03-11T13:33:02.057Z,1018.75
2017-03-11T13:34:11.521Z,1018.75
2017-03-11T13:35:20.633Z,1018.77
2017-03-11T13:36:30.115Z,1018.73
2017-03-11T13:37:38.829Z,1018.71
2017-03-11T13:38:48.515Z,1018.7
2017-03-11T13:39:57.625Z,1018.65
2017-03-11T13:41:06.747Z,1018.66
2017-03-11T13:42:16.612Z,1018.66
2017-03-11T13:43:25.695Z,1018.55
2017-03-11T13:44:35.421Z,1018.59
2017-03-11T13:45:45.273Z,1018.53
2017-03-11T13:46:53.993Z,1018.55
2017-03-11T13:48:03.477Z,1018.52
2017-03-11T13:49:12.944Z,1018.53
2017-03-11T13:50:22.412Z,1018.56
2017-03-11T13:51:31.870Z,1018.52
2017-03-11T13:52:41.338Z,1018.57
2017-03-11T13:53:51.254Z,1018.57
2017-03-11T13:55:00.349Z,1018.54
2017-03-11T13:56:10.073Z,1018.53
2017-03-11T13:57:19.557Z,1018.5
2017-03-11T13:58:28.257Z,1018.5
2017-03-11T13:59:37.385Z,1018.48
2017-03-11T14:00:46.492Z,1018.45
2017-03-11T14:01:55.587Z,1018.45